createdAt,value
2018-12-26T00:01:01.060Z,98469.35
2018-12-26T00:03:31.383Z,98467.12
2018-12-26T00:06:01.514Z,98470.13
2018-12-26T00:08:31.637Z,98465.91
2018-12-26T00:11:01.755Z,98462.31
2018-12-26T00:13:31.963Z,98448.46
2018-12-26T00:16:02.177Z,98446.00
2018-12-26T00:18:32.543Z,98444.06
2018-12-26T00:21:02.818Z,98447.28
2018-12-26T00:23:33.821Z,98450.44
2018-12-26T00:26:05.920Z,98464.00
2018-12-26T00:28:36.091Z,98462.24
2018-12-26T00:31:06.197Z,98481.67
2018-12-26T00:33:36.397Z,98484.64
2018-12-26T00:36:06.682Z,98490.65
2018-12-26T00:38:36.855Z,98486.91
2018-12-26T00:41:07.186Z,98483.65
2018-12-26T00:43:37.299Z,98481.45
2018-12-26T00:46:07.509Z,98471.48
2018-12-26T00:48:37.667Z,98479.20
2018-12-26T00:51:07.871Z,98476.20
2018-12-26T00:53:40.624Z,98471.73
2018-12-26T00:56:10.889Z,98471.00
2018-12-26T00:58:41.066Z,98471.73
2018-12-26T01:01:11.261Z,98468.28
2018-12-26T01:03:41.481Z,98465.02
2018-12-26T01:06:11.673Z,98468.28
2018-12-26T01:08:41.901Z,98464.80
2018-12-26T01:11:12.101Z,98469.23
2018-12-26T01:13:43.059Z,98471.98
2018-12-26T01:16:13.181Z,98461.25
2018-12-26T01:18:43.366Z,98456.27
2018-12-26T01:21:16.076Z,98453.04
2018-12-26T01:23:46.261Z,98443.69
2018-12-26T01:26:19.250Z,98448.05
2018-12-26T01:28:50.637Z,98442.08
2018-12-26T01:31:20.812Z,98434.61
2018-12-26T01:33:50.942Z,98424.27
2018-12-26T01:36:21.107Z,98432.11
2018-12-26T01:38:51.261Z,98438.09
2018-12-26T01:41:21.450Z,98438.56
2018-12-26T01:43:51.675Z,98448.16
2018-12-26T01:46:23.401Z,98451.25
2018-12-26T01:48:54.423Z,98446.88
2018-12-26T01:51:24.587Z,98455.23
2018-12-26T01:53:54.807Z,98470.20
2018-12-26T01:56:28.048Z,98467.19
2018-12-26T01:58:58.548Z,98459.20
2018-12-26T02:01:28.770Z,98453.19
2018-12-26T02:04:00.550Z,98449.96
2018-12-26T02:06:30.677Z,98451.69
2018-12-26T02:09:00.894Z,98449.84
2018-12-26T02:11:31.098Z,98458.83
2018-12-26T02:14:01.247Z,98451.94
2018-12-26T02:16:31.490Z,98450.70
2018-12-26T02:19:01.658Z,98456.67
2018-12-26T02:21:31.888Z,98458.43
2018-12-26T02:24:02.425Z,98461.44
2018-12-26T02:26:36.536Z,98454.95
2018-12-26T02:29:06.952Z,98450.95
2018-12-26T02:31:37.924Z,98444.83
2018-12-26T02:34:08.134Z,98444.09
2018-12-26T02:36:38.385Z,98437.79
2018-12-26T02:39:08.939Z,98434.31
2018-12-26T02:41:39.116Z,98426.06
2018-12-26T02:44:09.325Z,98414.59
2018-12-26T02:46:39.577Z,98398.13
2018-12-26T02:49:11.225Z,98406.63
2018-12-26T02:51:41.453Z,98399.42
2018-12-26T02:54:14.305Z,98389.45
2018-12-26T02:56:47.851Z,98378.48
2018-12-26T02:59:16.555Z,98385.97
2018-12-26T03:01:46.732Z,98372.00
2018-12-26T03:04:17.802Z,98366.50
2018-12-26T03:06:48.731Z,98364.00
2018-12-26T03:09:20.648Z,98353.37
2018-12-26T03:11:51.612Z,98343.30
2018-12-26T03:14:21.893Z,98339.81
2018-12-26T03:16:52.830Z,98332.34
2018-12-26T03:19:23.802Z,98339.81
2018-12-26T03:21:53.996Z,98344.06
2018-12-26T03:24:25.070Z,98345.16
2018-12-26T03:26:56.382Z,98355.08
2018-12-26T03:29:26.862Z,98349.73
2018-12-26T03:31:57.853Z,98341.27
2018-12-26T03:34:28.384Z,98326.56
2018-12-26T03:36:59.357Z,98312.39
2018-12-26T03:39:30.480Z,98298.48
2018-12-26T03:42:00.623Z,98307.94
2018-12-26T03:44:31.112Z,98318.46
2018-12-26T03:47:03.144Z,98326.67
2018-12-26T03:49:33.301Z,98332.17
2018-12-26T03:52:03.470Z,98332.86
2018-12-26T03:54:34.469Z,98323.14
2018-12-26T03:57:06.750Z,98315.66
2018-12-26T03:59:37.299Z,98298.73
2018-12-26T04:02:09.143Z,98305.84
2018-12-26T04:04:39.321Z,98301.23
2018-12-26T04:07:09.483Z,98297.75
2018-12-26T04:09:40.643Z,98295.92
2018-12-26T04:12:11.576Z,98297.29
2018-12-26T04:14:41.943Z,98289.86
2018-12-26T04:17:12.117Z,98290.12
2018-12-26T04:19:43.403Z,98291.66
2018-12-26T04:22:14.422Z,98302.58
2018-12-26T04:24:47.405Z,98293.84
2018-12-26T04:27:18.641Z,98301.43
2018-12-26T04:29:48.809Z,98298.06
2018-12-26T04:32:19.060Z,98302.78
2018-12-26T04:34:50.192Z,98300.03
2018-12-26T04:37:20.513Z,98303.51
2018-12-26T04:39:50.816Z,98303.00
2018-12-26T04:42:23.673Z,98287.83
2018-12-26T04:44:55.625Z,98282.59
2018-12-26T04:47:25.873Z,98282.84
2018-12-26T04:49:56.089Z,98282.34
2018-12-26T04:52:26.269Z,98289.08
2018-12-26T04:54:57.321Z,98284.31
2018-12-26T04:57:28.226Z,98278.84
2018-12-26T04:59:58.393Z,98283.88
2018-12-26T05:02:28.536Z,98283.89
2018-12-26T05:05:00.264Z,98285.64
2018-12-26T05:07:30.380Z,98292.60
2018-12-26T05:10:00.571Z,98293.84
2018-12-26T05:12:30.724Z,98307.30
2018-12-26T05:15:01.830Z,98303.05
2018-12-26T05:17:32.805Z,98310.11
2018-12-26T05:20:02.992Z,98318.20
2018-12-26T05:22:33.110Z,98318.20
2018-12-26T05:25:04.073Z,98322.89
2018-12-26T05:27:34.603Z,98316.45
2018-12-26T05:30:06.954Z,98321.42
2018-12-26T05:32:37.323Z,98315.92
2018-12-26T05:35:09.147Z,98318.41
2018-12-26T05:37:39.307Z,98312.92
2018-12-26T05:40:10.292Z,98322.67
2018-12-26T05:42:40.569Z,98333.94
2018-12-26T05:45:10.683Z,98327.44
2018-12-26T05:47:40.825Z,98325.38
2018-12-26T05:50:11.177Z,98326.16
2018-12-26T05:52:42.978Z,98330.51
2018-12-26T05:55:13.114Z,98318.16
2018-12-26T05:57:43.299Z,98323.14
2018-12-26T06:00:13.436Z,98320.14
2018-12-26T06:02:43.554Z,98318.16
2018-12-26T06:05:13.672Z,98312.39
2018-12-26T06:07:45.295Z,98310.01
2018-12-26T06:10:15.600Z,98310.41
2018-12-26T06:12:45.813Z,98318.37
2018-12-26T06:15:16.095Z,98313.33
2018-12-26T06:17:48.099Z,98321.80
2018-12-26T06:20:19.046Z,98316.34
2018-12-26T06:22:49.278Z,98326.06
2018-12-26T06:25:20.250Z,98322.58
2018-12-26T06:27:51.527Z,98323.45
2018-12-26T06:30:22.773Z,98312.61
2018-12-26T06:32:53.797Z,98308.87
2018-12-26T06:35:24.004Z,98310.78
2018-12-26T06:37:54.221Z,98322.37
2018-12-26T06:40:24.364Z,98320.38
2018-12-26T06:42:55.340Z,98330.06
2018-12-26T06:45:27.201Z,98327.56
2018-12-26T06:47:58.198Z,98327.09
2018-12-26T06:50:30.749Z,98327.56
2018-12-26T06:53:01.002Z,98330.83
2018-12-26T06:55:31.134Z,98326.62
2018-12-26T06:58:01.385Z,98333.22
2018-12-26T07:00:32.594Z,98335.59
2018-12-26T07:03:03.839Z,98339.59
2018-12-26T07:05:34.885Z,98337.84
2018-12-26T07:08:08.372Z,98340.63
2018-12-26T07:10:38.572Z,98336.64
2018-12-26T07:13:08.803Z,98338.91
2018-12-26T07:15:39.877Z,98340.42
2018-12-26T07:18:10.172Z,98337.45
2018-12-26T07:20:40.403Z,98344.20
2018-12-26T07:23:10.655Z,98353.19
2018-12-26T07:25:41.576Z,98331.02
2018-12-26T07:28:11.779Z,98326.30
2018-12-26T07:30:43.508Z,98319.34
2018-12-26T07:33:15.305Z,98338.42
2018-12-26T07:35:45.542Z,98345.90
2018-12-26T07:38:18.101Z,98335.53
2018-12-26T07:40:48.256Z,98324.87
2018-12-26T07:43:19.359Z,98327.11
2018-12-26T07:45:50.314Z,98332.09
2018-12-26T07:48:20.488Z,98349.31
2018-12-26T07:50:50.674Z,98357.30
2018-12-26T07:53:20.882Z,98343.12
2018-12-26T07:55:53.446Z,98349.09
2018-12-26T07:58:23.668Z,98357.55
2018-12-26T08:00:53.890Z,98346.45
2018-12-26T08:03:24.034Z,98342.83
2018-12-26T08:05:54.948Z,98336.23
2018-12-26T08:08:25.984Z,98346.30
2018-12-26T08:10:56.341Z,98336.08
2018-12-26T08:13:27.255Z,98354.00
2018-12-26T08:15:58.240Z,98355.75
2018-12-26T08:18:28.478Z,98349.02
2018-12-26T08:20:58.700Z,98348.53
2018-12-26T08:23:29.743Z,98354.00
2018-12-26T08:25:59.934Z,98349.02
2018-12-26T08:28:30.121Z,98354.98
2018-12-26T08:31:01.188Z,98347.87
2018-12-26T08:33:32.102Z,98346.48
2018-12-26T08:36:02.293Z,98350.80
2018-12-26T08:38:33.271Z,98356.88
2018-12-26T08:41:03.540Z,98364.56
2018-12-26T08:43:33.735Z,98365.15
2018-12-26T08:46:04.096Z,98361.77
2018-12-26T08:48:34.254Z,98362.47
2018-12-26T08:51:05.301Z,98360.22
2018-12-26T08:53:35.547Z,98366.19
2018-12-26T08:56:05.674Z,98364.69
2018-12-26T08:58:35.798Z,98367.17
2018-12-26T09:01:06.006Z,98367.28
2018-12-26T09:03:36.258Z,98357.42
2018-12-26T09:06:07.598Z,98362.03
2018-12-26T09:08:37.931Z,98357.90
2018-12-26T09:11:08.112Z,98362.36
2018-12-26T09:13:38.386Z,98364.75
2018-12-26T09:16:09.300Z,98364.75
2018-12-26T09:18:39.536Z,98367.23
2018-12-26T09:21:10.849Z,98362.77
2018-12-26T09:23:41.041Z,98365.79
2018-12-26T09:26:12.845Z,98354.94
2018-12-26T09:28:43.915Z,98361.78
2018-12-26T09:31:14.435Z,98356.59
2018-12-26T09:33:44.650Z,98352.58
2018-12-26T09:36:14.904Z,98344.12
2018-12-26T09:38:45.102Z,98342.31
2018-12-26T09:41:15.373Z,98339.91
2018-12-26T09:43:46.535Z,98340.48
2018-12-26T09:46:16.841Z,98324.54
2018-12-26T09:48:48.753Z,98324.54
2018-12-26T09:51:18.935Z,98323.61
2018-12-26T09:53:49.301Z,98316.42
2018-12-26T09:56:20.297Z,98316.69
2018-12-26T09:58:52.691Z,98322.41
2018-12-26T10:01:22.617Z,98326.20
2018-12-26T10:03:53.584Z,98326.36
2018-12-26T10:06:23.821Z,98329.02
2018-12-26T10:08:54.056Z,98328.23
2018-12-26T10:11:24.247Z,98326.20
2018-12-26T10:13:54.500Z,98334.41
2018-12-26T10:16:24.703Z,98336.08
2018-12-26T10:18:54.936Z,98335.81
2018-12-26T10:21:25.106Z,98338.15
2018-12-26T10:23:56.197Z,98334.16
2018-12-26T10:26:26.397Z,98337.63
2018-12-26T10:29:01.080Z,98345.16
2018-12-26T10:31:30.165Z,98341.73
2018-12-26T10:34:00.394Z,98335.50
2018-12-26T10:36:32.245Z,98338.77
2018-12-26T10:39:06.133Z,98344.55
2018-12-26T10:41:37.444Z,98339.87
2018-12-26T10:44:07.807Z,98335.66
2018-12-26T10:46:38.033Z,98331.97
2018-12-26T10:49:08.287Z,98322.84
2018-12-26T10:51:38.531Z,98328.17
2018-12-26T10:54:08.839Z,98327.65
2018-12-26T10:56:39.018Z,98329.58
2018-12-26T10:59:10.573Z,98327.33
2018-12-26T11:01:42.157Z,98321.84
2018-12-26T11:04:12.325Z,98322.20
2018-12-26T11:06:42.464Z,98323.91
2018-12-26T11:09:12.641Z,98330.93
2018-12-26T11:11:42.839Z,98334.67
2018-12-26T11:14:13.028Z,98332.50
2018-12-26T11:16:43.257Z,98332.08
2018-12-26T11:19:13.970Z,98324.84
2018-12-26T11:21:44.268Z,98327.55
2018-12-26T11:24:15.223Z,98324.02
2018-12-26T11:26:46.070Z,98318.55
2018-12-26T11:29:18.715Z,98317.03
2018-12-26T11:31:48.206Z,98315.28
2018-12-26T11:34:18.412Z,98305.57
2018-12-26T11:36:48.600Z,98303.84
2018-12-26T11:39:18.889Z,98302.09
2018-12-26T11:41:50.626Z,98300.21
2018-12-26T11:44:21.726Z,98299.07
2018-12-26T11:46:51.898Z,98299.78
2018-12-26T11:49:22.962Z,98293.28
2018-12-26T11:51:54.637Z,98289.36
2018-12-26T11:54:24.890Z,98284.38
2018-12-26T11:56:55.041Z,98281.69
2018-12-26T11:59:27.322Z,98280.22
2018-12-26T12:01:57.036Z,98280.05
2018-12-26T12:04:27.140Z,98286.02
2018-12-26T12:06:57.333Z,98287.58
2018-12-26T12:09:27.482Z,98292.51
2018-12-26T12:11:58.596Z,98300.97
2018-12-26T12:14:28.731Z,98299.79
2018-12-26T12:16:59.683Z,98302.28
2018-12-26T12:19:29.784Z,98303.16
2018-12-26T12:21:59.965Z,98303.88
2018-12-26T12:24:30.979Z,98308.30
2018-12-26T12:27:01.140Z,98312.91
2018-12-26T12:29:35.896Z,98308.70
2018-12-26T12:32:05.677Z,98322.63
2018-12-26T12:34:36.231Z,98321.59
2018-12-26T12:37:06.399Z,98318.68
2018-12-26T12:39:37.270Z,98325.39
2018-12-26T12:42:07.539Z,98321.98
2018-12-26T12:44:37.672Z,98322.25
2018-12-26T12:47:08.724Z,98326.20
2018-12-26T12:49:38.976Z,98326.33
2018-12-26T12:52:09.200Z,98335.91
2018-12-26T12:54:39.469Z,98325.29
2018-12-26T12:57:10.462Z,98325.59
2018-12-26T12:59:44.828Z,98329.75
2018-12-26T13:02:12.670Z,98332.11
2018-12-26T13:04:42.948Z,98333.09
2018-12-26T13:07:13.217Z,98334.58
2018-12-26T13:09:44.920Z,98328.60
2018-12-26T13:12:15.086Z,98327.89
2018-12-26T13:14:46.775Z,98332.41
2018-12-26T13:17:16.946Z,98331.90
2018-12-26T13:19:47.210Z,98333.25
2018-12-26T13:22:17.515Z,98323.43
2018-12-26T13:24:47.668Z,98326.91
2018-12-26T13:27:17.854Z,98319.11
2018-12-26T13:29:53.660Z,98318.50
2018-12-26T13:32:21.154Z,98321.71
2018-12-26T13:34:51.328Z,98324.20
2018-12-26T13:37:22.946Z,98314.23
2018-12-26T13:39:54.858Z,98308.25
2018-12-26T13:42:25.091Z,98305.55
2018-12-26T13:44:55.341Z,98306.72
2018-12-26T13:47:26.321Z,98305.88
2018-12-26T13:49:56.498Z,98295.02
2018-12-26T13:52:27.488Z,98297.62
2018-12-26T13:54:58.408Z,98298.31
2018-12-26T13:57:28.582Z,98308.64
2018-12-26T14:00:02.547Z,98306.78
2018-12-26T14:02:30.713Z,98307.11
2018-12-26T14:05:01.017Z,98309.29
2018-12-26T14:07:31.988Z,98320.27
2018-12-26T14:10:02.944Z,98328.73
2018-12-26T14:12:34.038Z,98328.95
2018-12-26T14:15:04.228Z,98332.21
2018-12-26T14:17:34.444Z,98322.13
2018-12-26T14:20:05.520Z,98318.02
2018-12-26T14:22:35.666Z,98320.27
2018-12-26T14:25:06.660Z,98317.03
2018-12-26T14:27:36.926Z,98323.03
2018-12-26T14:30:11.365Z,98324.02
2018-12-26T14:32:42.827Z,98334.50
2018-12-26T14:35:15.422Z,98332.02
2018-12-26T14:37:46.362Z,98323.92
2018-12-26T14:40:17.326Z,98317.22
2018-12-26T14:42:47.518Z,98320.91
2018-12-26T14:45:17.795Z,98326.00
2018-12-26T14:47:48.018Z,98319.39
2018-12-26T14:50:18.247Z,98319.39
2018-12-26T14:52:50.055Z,98337.06
2018-12-26T14:55:20.240Z,98336.18
2018-12-26T14:57:50.374Z,98342.94
2018-12-26T15:00:22.240Z,98330.42
2018-12-26T15:02:52.464Z,98323.92
2018-12-26T15:05:22.609Z,98332.39
2018-12-26T15:07:52.837Z,98337.38
2018-12-26T15:10:23.888Z,98334.98
2018-12-26T15:12:54.130Z,98346.98
2018-12-26T15:15:24.255Z,98341.78
2018-12-26T15:17:56.070Z,98345.78
2018-12-26T15:20:26.220Z,98346.00
2018-12-26T15:22:56.496Z,98337.02
2018-12-26T15:25:26.664Z,98327.56
2018-12-26T15:27:56.920Z,98327.56
2018-12-26T15:30:28.636Z,98328.95
2018-12-26T15:32:59.042Z,98333.41
2018-12-26T15:35:29.212Z,98336.17
2018-12-26T15:37:59.358Z,98326.67
2018-12-26T15:40:30.353Z,98333.41
2018-12-26T15:43:00.522Z,98334.40
2018-12-26T15:45:30.765Z,98334.11
2018-12-26T15:48:01.351Z,98332.86
2018-12-26T15:50:33.026Z,98337.84
2018-12-26T15:53:05.948Z,98332.53
2018-12-26T15:55:36.958Z,98327.19
2018-12-26T15:58:07.135Z,98316.13
2018-12-26T16:00:37.846Z,98312.80
2018-12-26T16:03:09.182Z,98316.58
2018-12-26T16:05:40.074Z,98308.85
2018-12-26T16:08:10.219Z,98311.34
2018-12-26T16:10:40.393Z,98308.33
2018-12-26T16:13:10.824Z,98308.33
2018-12-26T16:15:42.673Z,98320.53
2018-12-26T16:18:14.435Z,98323.39
2018-12-26T16:20:44.602Z,98322.19
2018-12-26T16:23:18.310Z,98322.30
2018-12-26T16:25:49.699Z,98324.05
2018-12-26T16:28:19.964Z,98318.34
2018-12-26T16:30:50.158Z,98319.08
2018-12-26T16:33:20.386Z,98311.86
2018-12-26T16:35:50.649Z,98321.80
2018-12-26T16:38:20.898Z,98322.98
2018-12-26T16:40:51.334Z,98325.47
2018-12-26T16:43:21.587Z,98329.67
2018-12-26T16:45:52.498Z,98331.14
2018-12-26T16:48:22.710Z,98327.62
2018-12-26T16:50:52.959Z,98331.25
2018-12-26T16:53:23.178Z,98328.65
2018-12-26T16:55:54.447Z,98335.61
2018-12-26T16:58:24.594Z,98320.41
2018-12-26T17:00:56.344Z,98324.77
2018-12-26T17:03:26.479Z,98328.50
2018-12-26T17:05:56.705Z,98318.54
2018-12-26T17:08:26.927Z,98322.42
2018-12-26T17:10:57.149Z,98332.39
2018-12-26T17:13:27.386Z,98339.86
2018-12-26T17:15:57.591Z,98340.12
2018-12-26T17:18:27.865Z,98336.52
2018-12-26T17:20:58.097Z,98336.86
2018-12-26T17:23:28.357Z,98328.14
2018-12-26T17:25:58.554Z,98336.93
2018-12-26T17:28:28.745Z,98335.17
2018-12-26T17:31:04.039Z,98332.06
2018-12-26T17:33:31.787Z,98331.95
2018-12-26T17:36:02.805Z,98336.05
2018-12-26T17:38:33.791Z,98328.47
2018-12-26T17:41:04.016Z,98334.19
2018-12-26T17:43:35.779Z,98336.67
2018-12-26T17:46:09.108Z,98339.16
2018-12-26T17:48:39.294Z,98338.95
2018-12-26T17:51:14.716Z,98346.52
2018-12-26T17:54:11.456Z,98345.28
2018-12-26T17:57:26.197Z,98339.94
2018-12-26T18:00:43.741Z,98339.42
2018-12-26T18:03:15.532Z,98325.72
2018-12-26T18:05:45.728Z,98325.72
2018-12-26T18:08:16.719Z,98325.72
2018-12-26T18:10:47.005Z,98326.97
2018-12-26T18:13:17.119Z,98335.42
2018-12-26T18:15:47.339Z,98341.17
2018-12-26T18:18:19.079Z,98328.98
2018-12-26T18:20:49.242Z,98326.02
2018-12-26T18:23:20.521Z,98319.17
2018-12-26T18:25:50.744Z,98317.81
2018-12-26T18:28:20.994Z,98317.59
2018-12-26T18:30:51.217Z,98315.25
2018-12-26T18:33:22.299Z,98307.78
2018-12-26T18:35:52.566Z,98315.50
2018-12-26T18:38:22.889Z,98308.41
2018-12-26T18:40:54.629Z,98312.13
2018-12-26T18:43:26.318Z,98318.36
2018-12-26T18:45:56.649Z,98325.57
2018-12-26T18:48:26.926Z,98322.35
2018-12-26T18:50:57.120Z,98324.94
2018-12-26T18:53:28.158Z,98322.69
2018-12-26T18:55:58.374Z,98320.86
2018-12-26T18:58:28.628Z,98323.17
2018-12-26T19:00:58.800Z,98328.38
2018-12-26T19:03:30.072Z,98330.36
2018-12-26T19:06:00.264Z,98327.14
2018-12-26T19:08:30.484Z,98324.65
2018-12-26T19:11:01.095Z,98329.63
2018-12-26T19:13:31.341Z,98325.75
2018-12-26T19:16:01.670Z,98320.91
2018-12-26T19:18:31.992Z,98320.88
2018-12-26T19:21:03.036Z,98315.91
2018-12-26T19:23:33.406Z,98323.52
2018-12-26T19:26:03.769Z,98322.92
2018-12-26T19:28:34.670Z,98323.17
2018-12-26T19:31:05.711Z,98322.19
2018-12-26T19:33:35.946Z,98319.75
2018-12-26T19:36:09.812Z,98323.66
2018-12-26T19:38:38.056Z,98328.23
2018-12-26T19:41:09.403Z,98319.77
2018-12-26T19:43:41.500Z,98320.77
2018-12-26T19:46:11.804Z,98320.03
2018-12-26T19:48:45.464Z,98322.13
2018-12-26T19:51:19.472Z,98320.86
2018-12-26T19:53:50.103Z,98313.50
2018-12-26T19:56:21.212Z,98307.65
2018-12-26T19:58:51.352Z,98309.41
2018-12-26T20:01:21.528Z,98305.56
2018-12-26T20:03:51.711Z,98309.30
2018-12-26T20:06:23.325Z,98304.31
2018-12-26T20:08:53.524Z,98306.41
2018-12-26T20:11:23.777Z,98312.00
2018-12-26T20:13:54.743Z,98314.52
2018-12-26T20:16:24.936Z,98318.48
2018-12-26T20:18:55.163Z,98309.30
2018-12-26T20:21:26.136Z,98316.87
2018-12-26T20:23:56.322Z,98311.02
2018-12-26T20:26:26.570Z,98311.02
2018-12-26T20:28:56.846Z,98319.98
2018-12-26T20:31:27.156Z,98325.20
2018-12-26T20:33:57.380Z,98334.44
2018-12-26T20:36:28.297Z,98327.95
2018-12-26T20:39:00.655Z,98331.97
2018-12-26T20:41:30.878Z,98325.46
2018-12-26T20:44:01.049Z,98322.98
2018-12-26T20:46:31.265Z,98326.70
2018-12-26T20:49:01.524Z,98324.51
2018-12-26T20:51:33.039Z,98322.02
2018-12-26T20:54:03.205Z,98324.73
2018-12-26T20:56:35.071Z,98318.98
2018-12-26T20:59:05.393Z,98313.53
2018-12-26T21:01:36.568Z,98318.53
2018-12-26T21:04:06.858Z,98316.80
2018-12-26T21:06:37.144Z,98316.83
2018-12-26T21:09:09.049Z,98316.61
2018-12-26T21:11:40.084Z,98315.84
2018-12-26T21:14:10.984Z,98311.86
2018-12-26T21:16:43.868Z,98312.84
2018-12-26T21:19:15.095Z,98312.59
2018-12-26T21:21:45.413Z,98314.69
2018-12-26T21:24:21.466Z,98310.81
2018-12-26T21:26:52.938Z,98307.16
2018-12-26T21:29:23.209Z,98307.95
2018-12-26T21:31:53.478Z,98300.38
2018-12-26T21:34:23.805Z,98301.63
2018-12-26T21:36:54.085Z,98301.87
2018-12-26T21:39:24.881Z,98306.38
2018-12-26T21:41:55.111Z,98299.92
2018-12-26T21:44:26.799Z,98293.73
2018-12-26T21:46:59.796Z,98293.75
2018-12-26T21:49:30.142Z,98285.27
2018-12-26T21:52:00.706Z,98291.97
2018-12-26T21:54:31.018Z,98293.50
2018-12-26T21:57:01.267Z,98291.27
2018-12-26T21:59:31.434Z,98292.00
2018-12-26T22:02:01.627Z,98291.86
2018-12-26T22:04:31.843Z,98298.59
2018-12-26T22:07:02.920Z,98300.20
2018-12-26T22:09:33.195Z,98301.19
2018-12-26T22:12:04.121Z,98299.44
2018-12-26T22:14:34.379Z,98295.23
2018-12-26T22:17:04.563Z,98293.87
2018-12-26T22:19:34.893Z,98298.70
2018-12-26T22:22:05.136Z,98292.48
2018-12-26T22:24:35.310Z,98290.50
2018-12-26T22:27:05.483Z,98292.00
2018-12-26T22:29:35.704Z,98288.03
2018-12-26T22:32:05.904Z,98284.67
2018-12-26T22:34:36.155Z,98284.07
2018-12-26T22:37:06.313Z,98285.83
2018-12-26T22:39:36.522Z,98280.11
2018-12-26T22:42:06.758Z,98282.12
2018-12-26T22:44:38.541Z,98278.64
2018-12-26T22:47:08.995Z,98277.77
2018-12-26T22:49:39.155Z,98276.63
2018-12-26T22:52:09.471Z,98269.69
2018-12-26T22:54:39.602Z,98265.98
2018-12-26T22:57:12.835Z,98263.49
2018-12-26T22:59:43.216Z,98263.25
2018-12-26T23:02:15.391Z,98255.58
2018-12-26T23:04:47.117Z,98251.84
2018-12-26T23:07:17.748Z,98256.31
2018-12-26T23:09:48.076Z,98248.11
2018-12-26T23:12:18.318Z,98246.38
2018-12-26T23:14:51.820Z,98254.06
2018-12-26T23:17:22.167Z,98249.08
2018-12-26T23:19:53.145Z,98253.83
2018-12-26T23:22:24.132Z,98243.01
2018-12-26T23:24:55.894Z,98245.38
2018-12-26T23:27:26.082Z,98250.61
2018-12-26T23:29:56.327Z,98255.81
2018-12-26T23:32:26.534Z,98247.97
2018-12-26T23:34:56.803Z,98254.05
2018-12-26T23:37:28.987Z,98244.84
2018-12-26T23:39:59.267Z,98241.62
2018-12-26T23:42:29.461Z,98243.09
2018-12-26T23:44:59.629Z,98240.63
2018-12-26T23:47:29.729Z,98246.59
2018-12-26T23:49:59.902Z,98249.08
2018-12-26T23:52:31.560Z,98251.56
2018-12-26T23:55:01.758Z,98248.31
2018-12-26T23:57:31.862Z,98243.34
